createdAt,value
2023-05-10T00:00:06.309Z,94234.00
2023-05-10T00:01:06.359Z,94234.00
2023-05-10T00:02:06.352Z,94236.00
2023-05-10T00:03:06.516Z,94236.00
2023-05-10T00:04:06.411Z,94234.00
2023-05-10T00:05:06.483Z,94232.00
2023-05-10T00:06:06.460Z,94232.00
2023-05-10T00:07:06.470Z,94230.00
2023-05-10T00:08:06.540Z,94230.00
2023-05-10T00:09:06.500Z,94230.00
2023-05-10T00:10:06.497Z,94228.00
2023-05-10T00:11:06.535Z,94230.00
2023-05-10T00:12:06.518Z,94232.00
2023-05-10T00:13:06.594Z,94234.00
2023-05-10T00:14:06.561Z,94234.00
2023-05-10T00:15:06.562Z,94234.00
2023-05-10T00:16:06.657Z,94234.00
2023-05-10T00:17:06.617Z,94232.00
2023-05-10T00:18:06.671Z,94232.00
2023-05-10T00:19:06.654Z,94230.00
2023-05-10T00:20:06.696Z,94232.00
2023-05-10T00:21:06.675Z,94234.00
2023-05-10T00:22:06.691Z,94232.00
2023-05-10T00:23:06.724Z,94228.00
2023-05-10T00:24:06.740Z,94230.00
2023-05-10T00:25:06.735Z,94232.00
2023-05-10T00:26:06.738Z,94232.00
2023-05-10T00:27:06.751Z,94232.00
2023-05-10T00:28:06.757Z,94232.00
2023-05-10T00:29:06.756Z,94234.00
2023-05-10T00:30:06.763Z,94234.00
2023-05-10T00:31:06.790Z,94232.00
2023-05-10T00:32:06.854Z,94234.00
2023-05-10T00:33:06.842Z,94234.00
2023-05-10T00:34:06.809Z,94234.00
2023-05-10T00:35:06.839Z,94234.00
2023-05-10T00:36:06.834Z,94236.00
2023-05-10T00:37:06.820Z,94238.00
2023-05-10T00:38:06.809Z,94238.00
2023-05-10T00:39:06.840Z,94236.00
2023-05-10T00:40:06.836Z,94242.00
2023-05-10T00:41:06.844Z,94240.00
2023-05-10T00:42:06.824Z,94240.00
2023-05-10T00:43:06.818Z,94242.00
2023-05-10T00:44:06.849Z,94240.00
2023-05-10T00:45:06.828Z,94242.00
2023-05-10T00:46:06.884Z,94242.00
2023-05-10T00:47:06.843Z,94244.00
2023-05-10T00:48:06.911Z,94240.00
2023-05-10T00:49:06.855Z,94244.00
2023-05-10T00:50:06.832Z,94242.00
2023-05-10T00:51:06.837Z,94245.00
2023-05-10T00:52:06.846Z,94244.00
2023-05-10T00:53:06.880Z,94245.00
2023-05-10T00:54:06.885Z,94247.00
2023-05-10T00:55:06.859Z,94247.00
2023-05-10T00:56:06.911Z,94244.00
2023-05-10T00:57:06.849Z,94245.00
2023-05-10T00:58:06.872Z,94245.00
2023-05-10T00:59:06.861Z,94245.00
2023-05-10T01:00:06.877Z,94245.00
2023-05-10T01:01:06.924Z,94244.00
2023-05-10T01:02:06.904Z,94244.00
2023-05-10T01:03:07.057Z,94242.00
2023-05-10T01:04:06.870Z,94244.00
2023-05-10T01:05:06.904Z,94242.00
2023-05-10T01:06:06.859Z,94242.00
2023-05-10T01:07:06.912Z,94242.00
2023-05-10T01:08:06.901Z,94244.00
2023-05-10T01:09:06.904Z,94244.00
2023-05-10T01:10:06.935Z,94244.00
2023-05-10T01:11:06.902Z,94247.00
2023-05-10T01:12:06.928Z,94247.00
2023-05-10T01:13:06.934Z,94247.00
2023-05-10T01:14:06.927Z,94245.00
2023-05-10T01:15:06.985Z,94247.00
2023-05-10T01:16:06.939Z,94247.00
2023-05-10T01:17:06.942Z,94245.00
2023-05-10T01:18:06.927Z,94245.00
2023-05-10T01:19:06.941Z,94242.00
2023-05-10T01:20:06.950Z,94245.00
2023-05-10T01:21:06.954Z,94244.00
2023-05-10T01:22:06.946Z,94244.00
2023-05-10T01:23:06.983Z,94244.00
2023-05-10T01:24:07.007Z,94245.00
2023-05-10T01:25:07.009Z,94244.00
2023-05-10T01:26:07.035Z,94242.00
2023-05-10T01:27:07.080Z,94244.00
2023-05-10T01:28:07.110Z,94242.00
2023-05-10T01:29:07.100Z,94242.00
2023-05-10T01:30:15.467Z,94242.00
2023-05-10T01:31:08.154Z,94244.00
2023-05-10T01:32:07.124Z,94242.00
2023-05-10T01:33:07.162Z,94238.00
2023-05-10T01:34:07.091Z,94242.00
2023-05-10T01:35:07.092Z,94238.00
2023-05-10T01:36:07.080Z,94240.00
2023-05-10T01:37:07.099Z,94238.00
2023-05-10T01:38:07.107Z,94242.00
2023-05-10T01:39:07.057Z,94242.00
2023-05-10T01:40:07.032Z,94238.00
2023-05-10T01:41:07.036Z,94240.00
2023-05-10T01:42:07.037Z,94240.00
2023-05-10T01:43:07.050Z,94240.00
2023-05-10T01:44:07.024Z,94242.00
2023-05-10T01:45:07.025Z,94242.00
2023-05-10T01:46:07.006Z,94242.00
2023-05-10T01:47:06.968Z,94244.00
2023-05-10T01:48:07.107Z,94242.00
2023-05-10T01:49:07.016Z,94242.00
2023-05-10T01:50:06.990Z,94244.00
2023-05-10T01:51:06.989Z,94245.00
2023-05-10T01:52:06.943Z,94247.00
2023-05-10T01:53:06.960Z,94245.00
2023-05-10T01:54:06.953Z,94245.00
2023-05-10T01:55:06.919Z,94249.00
2023-05-10T01:56:06.937Z,94251.00
2023-05-10T01:57:06.931Z,94249.00
2023-05-10T01:58:06.916Z,94251.00
2023-05-10T01:59:06.926Z,94251.00
2023-05-10T02:00:06.891Z,94253.00
2023-05-10T02:01:06.956Z,94255.00
2023-05-10T02:02:06.934Z,94257.00
2023-05-10T02:03:06.965Z,94259.00
2023-05-10T02:04:06.981Z,94259.00
2023-05-10T02:05:06.924Z,94261.00
2023-05-10T02:06:06.986Z,94263.00
2023-05-10T02:07:06.989Z,94263.00
2023-05-10T02:08:06.991Z,94263.00
2023-05-10T02:09:06.979Z,94265.00
2023-05-10T02:10:07.033Z,94261.00
2023-05-10T02:11:07.039Z,94263.00
2023-05-10T02:12:07.037Z,94267.00
2023-05-10T02:13:07.120Z,94267.00
2023-05-10T02:14:07.056Z,94265.00
2023-05-10T02:15:07.059Z,94267.00
2023-05-10T02:16:07.121Z,94269.00
2023-05-10T02:17:07.086Z,94269.00
2023-05-10T02:18:07.272Z,94269.00
2023-05-10T02:19:07.120Z,94271.00
2023-05-10T02:20:07.131Z,94273.00
2023-05-10T02:21:07.106Z,94271.00
2023-05-10T02:22:07.107Z,94271.00
2023-05-10T02:23:07.154Z,94275.00
2023-05-10T02:24:07.127Z,94273.00
2023-05-10T02:25:07.157Z,94273.00
2023-05-10T02:26:07.189Z,94273.00
2023-05-10T02:27:07.226Z,94277.00
2023-05-10T02:28:07.223Z,94275.00
2023-05-10T02:29:07.191Z,94275.00
2023-05-10T02:30:07.223Z,94277.00
2023-05-10T02:31:07.254Z,94271.00
2023-05-10T02:32:07.338Z,94277.00
2023-05-10T02:33:07.379Z,94277.00
2023-05-10T02:34:07.310Z,94275.00
2023-05-10T02:35:07.327Z,94275.00
2023-05-10T02:36:07.632Z,94281.00
2023-05-10T02:37:07.324Z,94283.00
2023-05-10T02:38:07.350Z,94277.00
2023-05-10T02:39:07.346Z,94283.00
2023-05-10T02:40:07.374Z,94279.00
2023-05-10T02:41:07.408Z,94279.00
2023-05-10T02:42:07.393Z,94279.00
2023-05-10T02:43:07.389Z,94277.00
2023-05-10T02:44:07.403Z,94279.00
2023-05-10T02:45:07.456Z,94277.00
2023-05-10T02:46:07.486Z,94277.00
2023-05-10T02:47:07.495Z,94279.00
2023-05-10T02:48:07.542Z,94279.00
2023-05-10T02:49:07.501Z,94279.00
2023-05-10T02:50:07.546Z,94281.00
2023-05-10T02:51:07.556Z,94281.00
2023-05-10T02:52:07.565Z,94281.00
2023-05-10T02:53:07.596Z,94281.00
2023-05-10T02:54:07.597Z,94281.00
2023-05-10T02:55:07.601Z,94279.00
2023-05-10T02:56:07.667Z,94279.00
2023-05-10T02:57:07.628Z,94281.00
2023-05-10T02:58:07.680Z,94281.00
2023-05-10T02:59:07.672Z,94281.00
2023-05-10T03:00:07.702Z,94281.00
2023-05-10T03:01:07.738Z,94281.00
2023-05-10T03:02:07.730Z,94281.00
2023-05-10T03:03:07.793Z,94283.00
2023-05-10T03:04:07.775Z,94281.00
2023-05-10T03:05:07.813Z,94283.00
2023-05-10T03:06:07.819Z,94281.00
2023-05-10T03:07:07.788Z,94281.00
2023-05-10T03:08:07.821Z,94283.00
2023-05-10T03:09:07.906Z,94279.00
2023-05-10T03:10:07.919Z,94281.00
2023-05-10T03:11:07.914Z,94279.00
2023-05-10T03:12:07.964Z,94279.00
2023-05-10T03:13:08.036Z,94281.00
2023-05-10T03:14:08.001Z,94281.00
2023-05-10T03:15:08.019Z,94281.00
2023-05-10T03:16:08.130Z,94281.00
2023-05-10T03:17:08.082Z,94283.00
2023-05-10T03:18:08.116Z,94283.00
2023-05-10T03:19:08.147Z,94283.00
2023-05-10T03:20:08.171Z,94285.00
2023-05-10T03:21:08.155Z,94285.00
2023-05-10T03:22:08.191Z,94285.00
2023-05-10T03:23:08.196Z,94285.00
2023-05-10T03:24:08.202Z,94289.00
2023-05-10T03:25:08.274Z,94287.00
2023-05-10T03:26:08.249Z,94291.00
2023-05-10T03:27:08.301Z,94289.00
2023-05-10T03:28:08.341Z,94293.00
2023-05-10T03:29:08.411Z,94291.00
2023-05-10T03:30:08.368Z,94293.00
2023-05-10T03:31:08.435Z,94291.00
2023-05-10T03:32:08.398Z,94293.00
2023-05-10T03:33:08.419Z,94293.00
2023-05-10T03:34:08.489Z,94293.00
2023-05-10T03:35:08.482Z,94293.00
2023-05-10T03:36:08.461Z,94293.00
2023-05-10T03:37:08.509Z,94295.00
2023-05-10T03:38:08.514Z,94295.00
2023-05-10T03:39:08.577Z,94295.00
2023-05-10T03:40:08.602Z,94297.00
2023-05-10T03:41:08.632Z,94299.00
2023-05-10T03:42:08.613Z,94300.00
2023-05-10T03:43:08.658Z,94300.00
2023-05-10T03:44:08.645Z,94300.00
2023-05-10T03:45:08.708Z,94300.00
2023-05-10T03:46:08.745Z,94304.00
2023-05-10T03:47:09.062Z,94302.00
2023-05-10T03:48:08.790Z,94302.00
2023-05-10T03:49:08.754Z,94304.00
2023-05-10T03:50:08.806Z,94302.00
2023-05-10T03:51:08.803Z,94308.00
2023-05-10T03:52:08.844Z,94308.00
2023-05-10T03:53:08.888Z,94308.00
2023-05-10T03:54:08.862Z,94310.00
2023-05-10T03:55:08.918Z,94310.00
2023-05-10T03:56:08.945Z,94312.00
2023-05-10T03:57:08.946Z,94314.00
2023-05-10T03:58:08.953Z,94314.00
2023-05-10T03:59:08.995Z,94316.00
2023-05-10T04:00:08.998Z,94316.00
2023-05-10T04:01:09.111Z,94316.00
2023-05-10T04:02:09.130Z,94316.00
2023-05-10T04:03:09.154Z,94316.00
2023-05-10T04:04:09.110Z,94316.00
2023-05-10T04:05:09.100Z,94312.00
2023-05-10T04:06:09.193Z,94314.00
2023-05-10T04:07:09.185Z,94314.00
2023-05-10T04:08:09.238Z,94312.00
2023-05-10T04:09:09.200Z,94312.00
2023-05-10T04:10:09.206Z,94316.00
2023-05-10T04:11:09.250Z,94314.00
2023-05-10T04:12:10.864Z,94312.00
2023-05-10T04:13:09.344Z,94314.00
2023-05-10T04:14:09.326Z,94314.00
2023-05-10T04:15:09.376Z,94318.00
2023-05-10T04:16:09.448Z,94318.00
2023-05-10T04:17:09.536Z,94316.00
2023-05-10T04:18:09.566Z,94318.00
2023-05-10T04:19:09.652Z,94318.00
2023-05-10T04:20:09.654Z,94316.00
2023-05-10T04:21:09.741Z,94318.00
2023-05-10T04:22:09.760Z,94318.00
2023-05-10T04:23:09.799Z,94320.00
2023-05-10T04:24:09.883Z,94318.00
2023-05-10T04:25:09.912Z,94320.00
2023-05-10T04:26:09.968Z,94320.00
2023-05-10T04:27:10.046Z,94322.00
2023-05-10T04:28:10.098Z,94322.00
2023-05-10T04:29:10.097Z,94322.00
2023-05-10T04:30:10.164Z,94322.00
2023-05-10T04:31:10.219Z,94324.00
2023-05-10T04:32:10.321Z,94324.00
2023-05-10T04:33:10.315Z,94326.00
2023-05-10T04:34:10.388Z,94324.00
2023-05-10T04:35:10.444Z,94322.00
2023-05-10T04:36:10.514Z,94322.00
2023-05-10T04:37:10.655Z,94318.00
2023-05-10T04:38:10.662Z,94320.00
2023-05-10T04:39:10.667Z,94322.00
2023-05-10T04:40:10.722Z,94320.00
2023-05-10T04:41:10.795Z,94322.00
2023-05-10T04:42:10.850Z,94320.00
2023-05-10T04:43:10.901Z,94320.00
2023-05-10T04:44:10.973Z,94322.00
2023-05-10T04:45:11.003Z,94322.00
2023-05-10T04:46:11.107Z,94326.00
2023-05-10T04:47:12.777Z,94322.00
2023-05-10T04:48:11.181Z,94328.00
2023-05-10T04:49:11.201Z,94324.00
2023-05-10T04:50:11.297Z,94324.00
2023-05-10T04:51:11.321Z,94326.00
2023-05-10T04:52:11.406Z,94326.00
2023-05-10T04:53:11.431Z,94324.00
2023-05-10T04:54:11.552Z,94326.00
2023-05-10T04:55:11.602Z,94328.00
2023-05-10T04:56:11.633Z,94328.00
2023-05-10T04:57:11.669Z,94328.00
2023-05-10T04:58:11.722Z,94326.00
2023-05-10T04:59:11.792Z,94326.00
2023-05-10T05:00:11.838Z,94326.00
2023-05-10T05:01:11.925Z,94328.00
2023-05-10T05:02:11.934Z,94330.00
2023-05-10T05:03:12.096Z,94328.00
2023-05-10T05:04:12.076Z,94328.00
2023-05-10T05:05:12.075Z,94330.00
2023-05-10T05:06:12.127Z,94334.00
2023-05-10T05:07:12.172Z,94338.00
2023-05-10T05:08:12.221Z,94336.00
2023-05-10T05:09:12.298Z,94340.00
2023-05-10T05:10:12.315Z,94342.00
2023-05-10T05:11:12.375Z,94340.00
2023-05-10T05:12:12.438Z,94344.00
2023-05-10T05:13:12.575Z,94342.00
2023-05-10T05:14:12.531Z,94344.00
2023-05-10T05:15:12.555Z,94344.00
2023-05-10T05:16:12.688Z,94346.00
2023-05-10T05:17:12.631Z,94347.00
2023-05-10T05:18:12.732Z,94349.00
2023-05-10T05:19:12.757Z,94347.00
2023-05-10T05:20:12.759Z,94349.00
2023-05-10T05:21:12.808Z,94349.00
2023-05-10T05:22:12.854Z,94349.00
2023-05-10T05:23:12.864Z,94349.00
2023-05-10T05:24:12.922Z,94351.00
2023-05-10T05:25:13.001Z,94351.00
2023-05-10T05:26:13.012Z,94351.00
2023-05-10T05:27:13.022Z,94353.00
2023-05-10T05:28:13.060Z,94353.00
2023-05-10T05:29:13.120Z,94353.00
2023-05-10T05:30:13.167Z,94355.00
2023-05-10T05:31:13.230Z,94355.00
2023-05-10T05:32:13.395Z,94357.00
2023-05-10T05:33:13.328Z,94355.00
2023-05-10T05:34:13.358Z,94359.00
2023-05-10T05:35:13.408Z,94359.00
2023-05-10T05:36:13.424Z,94361.00
2023-05-10T05:37:13.470Z,94357.00
2023-05-10T05:38:13.521Z,94361.00
2023-05-10T05:39:13.600Z,94363.00
2023-05-10T05:40:13.675Z,94361.00
2023-05-10T05:41:13.654Z,94359.00
2023-05-10T05:42:13.712Z,94361.00
2023-05-10T05:43:13.764Z,94363.00
2023-05-10T05:44:13.753Z,94359.00
2023-05-10T05:45:13.967Z,94361.00
2023-05-10T05:46:13.840Z,94363.00
2023-05-10T05:47:13.851Z,94359.00
2023-05-10T05:48:13.843Z,94363.00
2023-05-10T05:49:13.911Z,94361.00
2023-05-10T05:50:13.950Z,94365.00
2023-05-10T05:51:13.979Z,94367.00
2023-05-10T05:52:13.985Z,94363.00
2023-05-10T05:53:13.996Z,94369.00
2023-05-10T05:54:14.006Z,94367.00
2023-05-10T05:55:14.115Z,94365.00
2023-05-10T05:56:14.045Z,94365.00
2023-05-10T05:57:14.065Z,94361.00
2023-05-10T05:58:14.061Z,94365.00
2023-05-10T05:59:14.070Z,94365.00
2023-05-10T06:00:14.099Z,94365.00
2023-05-10T06:01:14.104Z,94363.00
2023-05-10T06:02:14.169Z,94365.00
2023-05-10T06:03:14.227Z,94365.00
2023-05-10T06:04:14.155Z,94365.00
2023-05-10T06:05:14.441Z,94363.00
2023-05-10T06:06:14.145Z,94377.00
2023-05-10T06:07:14.155Z,94367.00
2023-05-10T06:08:14.139Z,94367.00
2023-05-10T06:09:14.210Z,94363.00
2023-05-10T06:10:14.164Z,94367.00
2023-05-10T06:11:14.244Z,94367.00
2023-05-10T06:12:14.192Z,94367.00
2023-05-10T06:13:14.212Z,94369.00
2023-05-10T06:14:14.174Z,94377.00
2023-05-10T06:15:14.336Z,94369.00
2023-05-10T06:16:14.253Z,94369.00
2023-05-10T06:17:14.180Z,94377.00
2023-05-10T06:18:14.237Z,94369.00
2023-05-10T06:19:14.175Z,94379.00
2023-05-10T06:20:14.212Z,94369.00
2023-05-10T06:21:14.159Z,94379.00
2023-05-10T06:22:14.183Z,94383.00
2023-05-10T06:23:14.156Z,94383.00
2023-05-10T06:24:14.170Z,94383.00
2023-05-10T06:25:14.323Z,94385.00
2023-05-10T06:26:14.192Z,94383.00
2023-05-10T06:27:14.189Z,94391.00
2023-05-10T06:28:14.215Z,94391.00
2023-05-10T06:29:14.180Z,94391.00
2023-05-10T06:30:14.186Z,94391.00
2023-05-10T06:31:14.194Z,94394.00
2023-05-10T06:32:14.198Z,94392.00
2023-05-10T06:33:14.248Z,94392.00
2023-05-10T06:34:14.273Z,94391.00
2023-05-10T06:35:14.336Z,94392.00
2023-05-10T06:36:14.393Z,94387.00
2023-05-10T06:37:14.364Z,94392.00
2023-05-10T06:38:14.363Z,94392.00
2023-05-10T06:39:14.396Z,94392.00
2023-05-10T06:40:14.457Z,94391.00
2023-05-10T06:41:14.461Z,94389.00
2023-05-10T06:42:14.464Z,94391.00
2023-05-10T06:43:14.473Z,94392.00
2023-05-10T06:44:14.732Z,94392.00
2023-05-10T06:45:14.886Z,94396.00
2023-05-10T06:46:14.660Z,94398.00
2023-05-10T06:47:14.641Z,94396.00
2023-05-10T06:48:14.687Z,94394.00
2023-05-10T06:49:14.724Z,94394.00
2023-05-10T06:50:14.735Z,94391.00
2023-05-10T06:51:14.739Z,94392.00
2023-05-10T06:52:14.768Z,94394.00
2023-05-10T06:53:14.749Z,94392.00
2023-05-10T06:54:14.793Z,94391.00
2023-05-10T06:55:14.960Z,94391.00
2023-05-10T06:56:14.752Z,94389.00
2023-05-10T06:57:27.642Z,94387.00
2023-05-10T06:58:15.764Z,94389.00
2023-05-10T06:59:14.799Z,94389.00
2023-05-10T07:00:14.885Z,94387.00
2023-05-10T07:01:14.930Z,94392.00
2023-05-10T07:02:14.821Z,94392.00
2023-05-10T07:03:14.746Z,94392.00
2023-05-10T07:04:14.809Z,94392.00
2023-05-10T07:05:14.741Z,94392.00
2023-05-10T07:06:29.408Z,94391.00
2023-05-10T07:07:15.713Z,94391.00
2023-05-10T07:08:14.713Z,94391.00
2023-05-10T07:09:14.740Z,94391.00
2023-05-10T07:10:14.697Z,94389.00
2023-05-10T07:11:14.660Z,94391.00
2023-05-10T07:12:15.660Z,94389.00
2023-05-10T07:13:14.802Z,94392.00
2023-05-10T07:14:14.647Z,94392.00
2023-05-10T07:15:14.954Z,94391.00
2023-05-10T07:16:14.720Z,94391.00
2023-05-10T07:17:14.691Z,94392.00
2023-05-10T07:18:14.808Z,94391.00
2023-05-10T07:19:15.255Z,94389.00
2023-05-10T07:20:14.927Z,94391.00
2023-05-10T07:21:15.033Z,94392.00
2023-05-10T07:22:15.047Z,94389.00
2023-05-10T07:23:15.095Z,94392.00
2023-05-10T07:24:15.131Z,94389.00
2023-05-10T07:25:15.330Z,94392.00
2023-05-10T07:26:15.258Z,94392.00
2023-05-10T07:27:15.310Z,94392.00
2023-05-10T07:28:15.352Z,94392.00
2023-05-10T07:29:15.430Z,94398.00
2023-05-10T07:30:15.504Z,94398.00
2023-05-10T07:31:15.492Z,94398.00
2023-05-10T07:32:15.697Z,94398.00
2023-05-10T07:33:15.686Z,94396.00
2023-05-10T07:34:15.695Z,94396.00
2023-05-10T07:35:15.911Z,94396.00
2023-05-10T07:36:16.248Z,94394.00
2023-05-10T07:37:15.829Z,94392.00
2023-05-10T07:38:15.915Z,94392.00
2023-05-10T07:39:21.394Z,94392.00
2023-05-10T07:40:16.971Z,94394.00
2023-05-10T07:41:16.273Z,94396.00
2023-05-10T07:42:15.917Z,94396.00
2023-05-10T07:43:15.878Z,94398.00
2023-05-10T07:44:15.906Z,94396.00
2023-05-10T07:45:16.094Z,94398.00
2023-05-10T07:46:15.903Z,94398.00
2023-05-10T07:47:15.878Z,94400.00
2023-05-10T07:48:15.907Z,94400.00
2023-05-10T07:49:15.868Z,94400.00
2023-05-10T07:50:15.839Z,94402.00
2023-05-10T07:51:15.849Z,94400.00
2023-05-10T07:52:16.135Z,94402.00
2023-05-10T07:53:15.826Z,94410.00
2023-05-10T07:54:15.824Z,94408.00
2023-05-10T07:55:16.044Z,94406.00
2023-05-10T07:56:15.864Z,94408.00
2023-05-10T07:57:15.904Z,94406.00
2023-05-10T07:58:15.955Z,94406.00
2023-05-10T07:59:15.997Z,94408.00
2023-05-10T08:00:16.008Z,94408.00
2023-05-10T08:01:16.033Z,94406.00
2023-05-10T08:02:16.137Z,94406.00
2023-05-10T08:03:16.331Z,94406.00
2023-05-10T08:04:16.225Z,94402.00
2023-05-10T08:05:16.470Z,94406.00
2023-05-10T08:06:16.216Z,94406.00
2023-05-10T08:07:16.247Z,94408.00
2023-05-10T08:08:16.227Z,94410.00
2023-05-10T08:09:16.266Z,94410.00
2023-05-10T08:10:16.277Z,94414.00
2023-05-10T08:11:16.279Z,94412.00
2023-05-10T08:12:16.345Z,94416.00
2023-05-10T08:13:16.801Z,94414.00
2023-05-10T08:14:16.406Z,94414.00
2023-05-10T08:15:16.685Z,94418.00
2023-05-10T08:16:16.564Z,94416.00
2023-05-10T08:17:17.332Z,94418.00
2023-05-10T08:18:16.811Z,94420.00
2023-05-10T08:19:16.639Z,94422.00
2023-05-10T08:20:16.681Z,94418.00
2023-05-10T08:21:16.768Z,94422.00
2023-05-10T08:22:16.695Z,94420.00
2023-05-10T08:23:16.745Z,94422.00
2023-05-10T08:24:16.717Z,94420.00
2023-05-10T08:25:16.863Z,94418.00
2023-05-10T08:26:16.777Z,94418.00
2023-05-10T08:27:16.785Z,94418.00
2023-05-10T08:28:16.842Z,94424.00
2023-05-10T08:29:16.825Z,94422.00
2023-05-10T08:30:16.880Z,94422.00
2023-05-10T08:31:16.974Z,94422.00
2023-05-10T08:32:16.921Z,94420.00
2023-05-10T08:33:16.910Z,94424.00
2023-05-10T08:34:16.960Z,94424.00
2023-05-10T08:35:17.214Z,94428.00
2023-05-10T08:36:17.026Z,94428.00
2023-05-10T08:37:17.134Z,94430.00
2023-05-10T08:38:17.153Z,94428.00
2023-05-10T08:39:29.383Z,94428.00
2023-05-10T08:40:18.173Z,94432.00
2023-05-10T08:41:17.207Z,94432.00
2023-05-10T08:42:17.132Z,94432.00
2023-05-10T08:43:17.105Z,94434.00
2023-05-10T08:44:17.117Z,94436.00
2023-05-10T08:45:17.311Z,94439.00
2023-05-10T08:46:17.151Z,94436.00
2023-05-10T08:47:17.106Z,94438.00
2023-05-10T08:48:17.109Z,94438.00
2023-05-10T08:49:17.136Z,94441.00
2023-05-10T08:50:17.086Z,94439.00
2023-05-10T08:51:17.288Z,94443.00
2023-05-10T08:52:17.057Z,94441.00
2023-05-10T08:53:17.065Z,94439.00
2023-05-10T08:54:17.055Z,94438.00
2023-05-10T08:55:17.234Z,94443.00
2023-05-10T08:56:17.065Z,94441.00
2023-05-10T08:57:17.045Z,94445.00
2023-05-10T08:58:17.301Z,94445.00
2023-05-10T08:59:17.092Z,94449.00
2023-05-10T09:00:17.133Z,94445.00
2023-05-10T09:01:17.303Z,94447.00
2023-05-10T09:02:18.804Z,94447.00
2023-05-10T09:03:17.274Z,94447.00
2023-05-10T09:04:17.357Z,94449.00
2023-05-10T09:05:17.494Z,94451.00
2023-05-10T09:06:17.379Z,94455.00
2023-05-10T09:07:17.433Z,94455.00
2023-05-10T09:08:17.559Z,94453.00
2023-05-10T09:09:17.463Z,94453.00
2023-05-10T09:10:17.505Z,94453.00
2023-05-10T09:11:17.519Z,94455.00
2023-05-10T09:12:17.544Z,94453.00
2023-05-10T09:13:17.544Z,94453.00
2023-05-10T09:14:17.588Z,94451.00
2023-05-10T09:15:17.807Z,94455.00
2023-05-10T09:16:21.566Z,94455.00
2023-05-10T09:17:17.693Z,94459.00
2023-05-10T09:18:17.685Z,94459.00
2023-05-10T09:19:17.611Z,94461.00
2023-05-10T09:20:17.634Z,94459.00
2023-05-10T09:21:17.670Z,94461.00
2023-05-10T09:22:17.576Z,94459.00
2023-05-10T09:23:17.588Z,94461.00
2023-05-10T09:24:17.564Z,94459.00
2023-05-10T09:25:17.971Z,94461.00
2023-05-10T09:26:17.545Z,94461.00
2023-05-10T09:27:17.841Z,94459.00
2023-05-10T09:28:17.555Z,94463.00
2023-05-10T09:29:17.990Z,94463.00
2023-05-10T09:30:17.562Z,94463.00
2023-05-10T09:31:17.592Z,94461.00
2023-05-10T09:32:17.565Z,94465.00
2023-05-10T09:33:17.871Z,94465.00
2023-05-10T09:34:17.506Z,94463.00
2023-05-10T09:35:17.760Z,94463.00
2023-05-10T09:36:17.510Z,94461.00
2023-05-10T09:37:17.485Z,94459.00
2023-05-10T09:38:17.515Z,94457.00
2023-05-10T09:39:17.804Z,94461.00
2023-05-10T09:40:18.280Z,94459.00
2023-05-10T09:41:17.470Z,94457.00
2023-05-10T09:42:17.470Z,94461.00
2023-05-10T09:43:17.433Z,94455.00
2023-05-10T09:44:17.432Z,94457.00
2023-05-10T09:45:17.826Z,94457.00
2023-05-10T09:46:17.487Z,94455.00
2023-05-10T09:47:17.447Z,94451.00
2023-05-10T09:48:17.404Z,94453.00
2023-05-10T09:49:17.452Z,94453.00
2023-05-10T09:50:17.679Z,94451.00
2023-05-10T09:51:17.573Z,94453.00
2023-05-10T09:52:17.660Z,94453.00
2023-05-10T09:53:17.640Z,94453.00
2023-05-10T09:54:17.762Z,94455.00
2023-05-10T09:55:18.019Z,94455.00
2023-05-10T09:56:17.825Z,94453.00
2023-05-10T09:57:18.322Z,94453.00
2023-05-10T09:58:17.931Z,94453.00
2023-05-10T09:59:18.017Z,94453.00
2023-05-10T10:00:18.056Z,94453.00
2023-05-10T10:01:18.168Z,94453.00
2023-05-10T10:02:18.166Z,94457.00
2023-05-10T10:03:18.231Z,94457.00
2023-05-10T10:04:18.302Z,94455.00
2023-05-10T10:05:18.621Z,94457.00
2023-05-10T10:06:29.051Z,94453.00
2023-05-10T10:07:19.377Z,94455.00
2023-05-10T10:08:18.457Z,94451.00
2023-05-10T10:09:18.340Z,94453.00
2023-05-10T10:10:18.366Z,94453.00
2023-05-10T10:11:18.327Z,94455.00
2023-05-10T10:12:18.341Z,94455.00
2023-05-10T10:13:18.357Z,94457.00
2023-05-10T10:14:19.964Z,94457.00
2023-05-10T10:15:18.673Z,94455.00
2023-05-10T10:16:18.397Z,94461.00
2023-05-10T10:17:18.308Z,94459.00
2023-05-10T10:18:18.381Z,94459.00
2023-05-10T10:19:18.831Z,94463.00
2023-05-10T10:20:18.586Z,94459.00
2023-05-10T10:21:18.494Z,94461.00
2023-05-10T10:22:18.852Z,94459.00
2023-05-10T10:23:18.565Z,94459.00
2023-05-10T10:24:18.598Z,94461.00
2023-05-10T10:25:18.922Z,94463.00
2023-05-10T10:26:18.857Z,94465.00
2023-05-10T10:27:18.751Z,94465.00
2023-05-10T10:28:18.758Z,94463.00
2023-05-10T10:29:18.797Z,94463.00
2023-05-10T10:30:18.888Z,94463.00
2023-05-10T10:31:18.869Z,94459.00
2023-05-10T10:32:18.895Z,94459.00
2023-05-10T10:33:27.757Z,94461.00
2023-05-10T10:34:19.870Z,94461.00
2023-05-10T10:35:19.368Z,94459.00
2023-05-10T10:36:18.864Z,94461.00
2023-05-10T10:37:18.887Z,94461.00
2023-05-10T10:38:18.854Z,94459.00
2023-05-10T10:39:18.838Z,94459.00
2023-05-10T10:40:18.836Z,94457.00
2023-05-10T10:41:18.838Z,94461.00
2023-05-10T10:42:18.801Z,94461.00
2023-05-10T10:43:18.816Z,94463.00
2023-05-10T10:44:18.897Z,94461.00
2023-05-10T10:45:18.992Z,94459.00
2023-05-10T10:46:19.095Z,94461.00
2023-05-10T10:47:18.793Z,94461.00
2023-05-10T10:48:18.782Z,94461.00
2023-05-10T10:49:18.821Z,94461.00
2023-05-10T10:50:18.775Z,94461.00
2023-05-10T10:51:18.769Z,94457.00
2023-05-10T10:52:18.766Z,94461.00
2023-05-10T10:53:18.820Z,94455.00
2023-05-10T10:54:18.774Z,94455.00
2023-05-10T10:55:18.970Z,94461.00
2023-05-10T10:56:18.730Z,94459.00
2023-05-10T10:57:18.719Z,94461.00
2023-05-10T10:58:18.712Z,94459.00
2023-05-10T10:59:18.706Z,94457.00
2023-05-10T11:00:18.699Z,94457.00
2023-05-10T11:01:18.704Z,94455.00
2023-05-10T11:02:18.672Z,94453.00
2023-05-10T11:03:18.768Z,94457.00
2023-05-10T11:04:18.729Z,94455.00
2023-05-10T11:05:18.897Z,94453.00
2023-05-10T11:06:18.646Z,94453.00
2023-05-10T11:07:18.656Z,94453.00
2023-05-10T11:08:18.875Z,94453.00
2023-05-10T11:09:18.624Z,94451.00
2023-05-10T11:10:18.649Z,94453.00
2023-05-10T11:11:18.726Z,94453.00
2023-05-10T11:12:18.800Z,94451.00
2023-05-10T11:13:18.831Z,94451.00
2023-05-10T11:14:18.912Z,94447.00
2023-05-10T11:15:19.079Z,94451.00
2023-05-10T11:16:19.070Z,94447.00
2023-05-10T11:17:19.463Z,94447.00
2023-05-10T11:18:19.117Z,94445.00
2023-05-10T11:19:19.148Z,94447.00
2023-05-10T11:20:19.436Z,94445.00
2023-05-10T11:21:19.290Z,94445.00
2023-05-10T11:22:19.285Z,94443.00
2023-05-10T11:23:19.316Z,94439.00
2023-05-10T11:24:19.350Z,94441.00
2023-05-10T11:25:19.395Z,94441.00
2023-05-10T11:26:19.411Z,94443.00
2023-05-10T11:27:19.474Z,94443.00
2023-05-10T11:28:19.455Z,94445.00
2023-05-10T11:29:19.494Z,94445.00
2023-05-10T11:30:19.691Z,94443.00
2023-05-10T11:31:19.484Z,94447.00
2023-05-10T11:32:19.459Z,94445.00
2023-05-10T11:33:19.457Z,94445.00
2023-05-10T11:34:19.449Z,94445.00
2023-05-10T11:35:19.507Z,94447.00
2023-05-10T11:36:19.472Z,94445.00
2023-05-10T11:37:19.472Z,94447.00
2023-05-10T11:38:19.463Z,94443.00
2023-05-10T11:39:19.489Z,94447.00
2023-05-10T11:40:19.570Z,94445.00
2023-05-10T11:41:19.523Z,94447.00
2023-05-10T11:42:19.485Z,94445.00
2023-05-10T11:43:19.478Z,94443.00
2023-05-10T11:44:19.468Z,94445.00